Time;durP1;ratioP1;P1;durP2;ratioP2;P2;SDS_P1;SDS_P2;PMS_P1;PMS_P2;Temp;Humidity;BMP_temperature;BMP_pressure;BME280_temperature;BME280_humidity;BME280_pressure;Samples;Min_cycle;Max_cycle;Signal;HPM_P1;HPM_P2
2023/10/27 00:00:35;;;;;;;9.30;6.05;;;;;;;12.66;nan;98208.78;4918208;28;101055;-84
2023/10/27 00:03:00;;;;;;;10.45;5.88;;;;;;;12.55;nan;98187.72;4935128;28;96664;-85
2023/10/27 00:05:26;;;;;;;10.23;5.47;;;;;;;12.48;nan;98182.09;4921850;28;96925;-85
2023/10/27 00:07:51;;;;;;;16.25;6.55;;;;;;;12.60;nan;98185.56;4920699;28;101490;-84
2023/10/27 00:10:17;;;;;;;10.98;6.65;;;;;;;12.61;nan;98185.44;4920444;28;101104;-84
2023/10/27 00:12:43;;;;;;;12.40;6.63;;;;;;;12.64;nan;98200.16;4934912;28;96619;-85
2023/10/27 00:15:08;;;;;;;12.23;6.10;;;;;;;12.65;nan;98205.31;4934889;28;96850;-85
2023/10/27 00:17:34;;;;;;;15.90;6.55;;;;;;;12.62;nan;98196.81;4917879;28;101575;-84
2023/10/27 00:20:00;;;;;;;12.00;6.35;;;;;;;12.64;nan;98194.91;4917946;28;101768;-85
2023/10/27 00:22:27;;;;;;;10.35;6.22;;;;;;;12.62;nan;98181.88;4918395;28;96551;-85
2023/10/27 00:24:53;;;;;;;10.82;6.32;;;;;;;12.63;nan;98186.19;4934696;28;96912;-85
2023/10/27 00:27:20;;;;;;;14.57;5.78;;;;;;;12.61;nan;98179.34;4933560;28;100627;-85
2023/10/27 00:29:46;;;;;;;12.00;6.18;;;;;;;12.53;nan;98169.38;4934221;28;101416;-83
2023/10/27 00:32:11;;;;;;;10.43;6.18;;;;;;;12.54;nan;98175.53;4917980;28;96578;-85
2023/10/27 00:34:37;;;;;;;9.25;5.80;;;;;;;12.46;nan;98190.06;4918047;28;96603;-84
2023/10/27 00:37:03;;;;;;;16.73;7.70;;;;;;;12.45;nan;98193.69;4917680;28;97898;-85
2023/10/27 00:39:29;;;;;;;16.05;7.63;;;;;;;12.44;nan;98186.72;4950093;28;96604;-85
2023/10/27 00:41:54;;;;;;;14.20;6.45;;;;;;;12.43;nan;98189.47;4917958;28;96594;-85
2023/10/27 00:44:20;;;;;;;8.75;5.32;;;;;;;12.40;nan;98187.91;4917897;28;96860;-85
2023/10/27 00:46:45;;;;;;;9.88;6.30;;;;;;;12.35;nan;98181.31;4918103;28;97890;-84
2023/10/27 00:49:12;;;;;;;8.65;5.30;;;;;;;12.39;nan;98182.75;4934284;28;96749;-84
2023/10/27 00:51:39;;;;;;;9.88;5.13;;;;;;;12.35;nan;98181.31;4918086;28;96631;-84
2023/10/27 00:54:06;;;;;;;12.75;5.82;;;;;;;12.25;nan;98168.03;4919842;28;96804;-85
2023/10/27 00:56:31;;;;;;;10.63;5.78;;;;;;;12.26;nan;98177.59;4920836;28;101431;-84
2023/10/27 00:58:57;;;;;;;9.10;5.95;;;;;;;12.23;nan;98173.38;4937116;28;97872;-84
2023/10/27 01:01:23;;;;;;;12.70;5.78;;;;;;;12.18;nan;98164.16;4920428;28;96632;-85
2023/10/27 01:03:48;;;;;;;12.55;4.93;;;;;;;12.06;nan;98147.50;4921253;28;96963;-84
2023/10/27 01:06:14;;;;;;;10.68;5.65;;;;;;;12.10;nan;98153.38;4936698;28;101032;-85
2023/10/27 01:08:40;;;;;;;12.35;5.35;;;;;;;11.87;nan;98116.50;4920740;28;100287;-84
2023/10/27 01:11:07;;;;;;;8.85;5.72;;;;;;;12.06;nan;98142.25;4936800;28;96564;-85
2023/10/27 01:13:32;;;;;;;10.50;5.28;;;;;;;12.05;nan;98145.84;4921011;28;96584;-84
2023/10/27 01:15:59;;;;;;;12.52;4.78;;;;;;;11.84;nan;98107.94;4936624;28;102075;-85
2023/10/27 01:18:25;;;;;;;10.93;5.20;;;;;;;11.88;nan;98119.97;4937378;28;97842;-85
2023/10/27 01:20:51;;;;;;;8.05;5.03;;;;;;;11.90;nan;98128.59;4920709;28;96714;-84
2023/10/27 01:23:16;;;;;;;13.13;5.15;;;;;;;11.86;nan;98127.13;4920701;28;96688;-84
2023/10/27 01:25:42;;;;;;;10.95;4.65;;;;;;;11.65;nan;98100.59;4936297;28;98116;-84
2023/10/27 01:28:09;;;;;;;11.70;6.05;;;;;;;11.70;nan;98103.72;4920358;28;99826;-84
2023/10/27 01:30:35;;;;;;;12.75;4.88;;;;;;;11.52;nan;98088.38;4937023;28;96591;-84
2023/10/27 01:33:01;;;;;;;10.23;5.00;;;;;;;11.69;nan;98115.19;4920557;28;96933;-84
2023/10/27 01:35:26;;;;;;;10.63;4.90;;;;;;;11.59;nan;98114.19;4920396;28;101800;-84
2023/10/27 01:37:52;;;;;;;15.25;5.93;;;;;;;11.55;nan;98119.66;4936517;28;101078;-85
2023/10/27 01:40:18;;;;;;;17.63;6.72;;;;;;;11.52;nan;98119.06;4920339;28;96676;-84
2023/10/27 01:42:43;;;;;;;21.33;7.20;;;;;;;11.50;nan;98113.91;4937286;28;96709;-84
2023/10/27 01:45:09;;;;;;;12.23;6.20;;;;;;;11.49;nan;98112.22;4919834;28;101112;-84
2023/10/27 01:47:34;;;;;;;11.65;5.30;;;;;;;11.42;nan;98110.97;4904091;28;101376;-84
2023/10/27 01:50:00;;;;;;;16.02;6.45;;;;;;;11.42;nan;98110.97;4920314;28;96588;-84
2023/10/27 01:52:25;;;;;;;13.32;6.72;;;;;;;11.29;nan;98097.06;4936407;28;96931;-85
2023/10/27 01:54:53;;;;;;;14.60;6.93;;;;;;;11.35;nan;98104.50;4936109;28;100985;-84
2023/10/27 01:57:21;;;;;;;15.30;7.30;;;;;;;11.19;nan;98082.91;4919988;28;101326;-85
2023/10/27 01:59:46;;;;;;;12.27;6.53;;;;;;;11.23;nan;98089.66;4919973;28;96567;-84
2023/10/27 02:02:13;;;;;;;13.57;6.60;;;;;;;11.22;nan;98080.06;4920122;28;96897;-84
2023/10/27 02:04:39;;;;;;;20.17;7.28;;;;;;;11.26;nan;98086.81;4936849;28;98574;-84
2023/10/27 02:07:05;;;;;;;10.40;5.80;;;;;;;11.23;nan;98100.16;4936202;28;101224;-84
2023/10/27 02:09:30;;;;;;;10.10;5.47;;;;;;;10.98;nan;98069.53;4920162;28;96533;-85
2023/10/27 02:11:56;;;;;;;12.35;5.93;;;;;;;11.05;nan;98074.25;4919991;28;97096;-85
2023/10/27 02:14:21;;;;;;;9.25;5.75;;;;;;;11.02;nan;98078.88;4919589;28;98521;-84
2023/10/27 02:16:47;;;;;;;11.85;6.13;;;;;;;11.03;nan;98080.56;4937391;28;96656;-84
2023/10/27 02:19:13;;;;;;;10.68;5.68;;;;;;;11.02;nan;98092.00;4919868;28;96587;-85
2023/10/27 02:21:39;;;;;;;14.18;5.30;;;;;;;10.92;nan;98075.25;4936157;28;96846;-84
2023/10/27 02:24:05;;;;;;;13.52;5.45;;;;;;;10.93;nan;98082.97;4919753;28;98435;-84
2023/10/27 02:26:31;;;;;;;9.73;5.28;;;;;;;10.94;nan;98091.69;4903284;28;101546;-84
2023/10/27 02:28:56;;;;;;;9.70;6.15;;;;;;;10.83;nan;98081.97;4935850;28;96607;-85
2023/10/27 02:31:22;;;;;;;16.40;6.07;;;;;;;10.75;nan;98081.66;4936250;28;96745;-84
2023/10/27 02:33:48;;;;;;;11.57;5.95;;;;;;;10.84;nan;98097.59;4935382;28;101570;-84
2023/10/27 02:36:14;;;;;;;12.40;5.70;;;;;;;10.46;nan;98071.41;4935243;28;101678;-84
2023/10/27 02:38:40;;;;;;;10.02;6.13;;;;;;;10.25;nan;98088.59;4919430;28;96542;-84
2023/10/27 02:41:09;;;;;;;12.45;6.15;;;;;;;10.37;nan;98093.88;4919453;28;96937;-84
2023/10/27 02:43:34;;;;;;;11.52;5.55;;;;;;;10.45;nan;98090.72;4919173;28;101644;-84
2023/10/27 02:46:01;;;;;;;12.70;5.80;;;;;;;10.53;nan;98098.91;4918894;28;101136;-85
2023/10/27 02:48:26;;;;;;;7.85;5.47;;;;;;;10.47;nan;98099.34;4919583;28;96709;-84
2023/10/27 02:50:52;;;;;;;9.77;5.88;;;;;;;10.31;nan;98093.47;4919358;28;96828;-84
2023/10/27 02:53:18;;;;;;;10.45;5.68;;;;;;;10.42;nan;98101.44;4919054;28;101343;-85
2023/10/27 02:55:44;;;;;;;11.63;5.80;;;;;;;10.52;nan;98101.63;4919673;28;97361;-84
2023/10/27 02:58:10;;;;;;;16.23;5.97;;;;;;;10.55;nan;98096.16;4919039;28;96613;-84
2023/10/27 03:00:42;;;;;;;15.43;5.30;;;;;;;10.64;nan;98098.16;4919312;28;96572;-85
2023/10/27 03:03:09;;;;;;;11.82;6.78;;;;;;;10.61;nan;98099.19;4918806;28;98469;-85
2023/10/27 03:05:35;;;;;;;11.68;6.57;;;;;;;10.62;nan;98093.03;4935104;28;101519;-85
2023/10/27 03:08:01;;;;;;;11.85;6.13;;;;;;;10.63;nan;98091.25;4919175;28;96690;-84
2023/10/27 03:10:26;;;;;;;11.55;5.82;;;;;;;10.78;nan;98097.19;4918847;28;96929;-85
2023/10/27 03:12:52;;;;;;;10.85;6.50;;;;;;;10.73;nan;98094.03;4934650;28;102023;-84
2023/10/27 03:15:18;;;;;;;14.63;7.32;;;;;;;10.76;nan;98096.47;4934689;28;100272;-85
2023/10/27 03:17:44;;;;;;;15.30;6.55;;;;;;;10.76;nan;98110.44;4901852;28;96635;-84
2023/10/27 03:20:10;;;;;;;15.50;6.68;;;;;;;10.75;nan;98110.53;4919221;28;96899;-84
2023/10/27 03:22:35;;;;;;;15.35;5.68;;;;;;;10.75;nan;98102.66;4918493;28;100853;-84
2023/10/27 03:25:01;;;;;;;12.35;6.20;;;;;;;10.75;nan;98098.25;4934834;28;100636;-84
2023/10/27 03:27:27;;;;;;;14.45;5.97;;;;;;;10.55;nan;98078.63;4934474;28;96558;-84
2023/10/27 03:29:52;;;;;;;14.80;6.85;;;;;;;10.69;nan;98100.47;4918851;28;96818;-85
2023/10/27 03:32:18;;;;;;;11.73;6.32;;;;;;;10.66;nan;98091.03;4918760;28;97773;-84
2023/10/27 03:34:45;;;;;;;17.52;6.95;;;;;;;10.66;nan;98096.28;4918767;28;100037;-85
2023/10/27 03:37:12;;;;;;;16.38;7.40;;;;;;;10.63;nan;98093.84;4918963;28;96631;-83
2023/10/27 03:39:39;;;;;;;25.60;12.20;;;;;;;10.61;nan;98088.72;4918696;28;96821;-84
2023/10/27 03:42:07;;;;;;;29.33;11.85;;;;;;;10.66;nan;98098.91;4918325;28;100919;-84
2023/10/27 03:44:35;;;;;;;26.17;12.30;;;;;;;10.62;nan;98085.16;4919258;28;98049;-84
2023/10/27 03:47:01;;;;;;;23.20;9.35;;;;;;;10.63;nan;98091.25;4918681;28;96575;-84
2023/10/27 03:49:27;;;;;;;24.27;9.70;;;;;;;10.56;nan;98084.72;4934851;28;96871;-84
2023/10/27 03:51:53;;;;;;;24.42;9.25;;;;;;;10.61;nan;98093.13;4917729;28;100106;-85
2023/10/27 03:54:19;;;;;;;20.88;8.60;;;;;;;10.55;nan;98083.88;4918302;28;101424;-84
2023/10/27 03:56:45;;;;;;;13.55;6.85;;;;;;;10.61;nan;98088.72;4951368;28;96654;-85
2023/10/27 03:59:10;;;;;;;23.42;8.63;;;;;;;10.60;nan;98094.06;4919637;28;96906;-84
2023/10/27 04:01:37;;;;;;;18.10;7.32;;;;;;;10.56;nan;98098.69;4918670;28;98079;-85
2023/10/27 04:04:03;;;;;;;13.05;7.32;;;;;;;10.51;nan;98089.47;4918653;28;100156;-84
2023/10/27 04:06:29;;;;;;;15.15;7.82;;;;;;;10.54;nan;98094.50;4934889;28;96574;-84
2023/10/27 04:08:55;;;;;;;12.05;8.07;;;;;;;10.56;nan;98096.09;4919037;28;96808;-84
2023/10/27 04:11:20;;;;;;;18.63;7.90;;;;;;;10.43;nan;98066.38;4934220;28;101240;-84
2023/10/27 04:13:46;;;;;;;13.45;8.05;;;;;;;10.48;nan;98069.53;4918009;28;99627;-84
2023/10/27 04:16:12;;;;;;;15.52;8.18;;;;;;;10.53;nan;98083.19;4917980;28;96720;-84
2023/10/27 04:18:38;;;;;;;16.65;7.22;;;;;;;10.51;nan;98077.19;4934506;28;96743;-84
2023/10/27 04:21:04;;;;;;;19.58;7.85;;;;;;;10.52;nan;98076.22;4934085;28;101382;-84
2023/10/27 04:23:30;;;;;;;15.10;8.30;;;;;;;10.54;nan;98081.38;4918071;28;100854;-83
2023/10/27 04:25:56;;;;;;;15.32;6.88;;;;;;;10.40;nan;98051.69;4934492;28;96654;-83
2023/10/27 04:28:21;;;;;;;16.65;8.10;;;;;;;10.46;nan;98062.72;4936269;28;96792;-81
2023/10/27 04:30:47;;;;;;;20.10;7.93;;;;;;;10.46;nan;98057.47;4921328;28;101385;-83
2023/10/27 04:33:12;;;;;;;19.08;8.18;;;;;;;10.49;nan;98073.00;4921755;28;101318;-83
2023/10/27 04:35:38;;;;;;;18.48;8.05;;;;;;;10.53;nan;98075.31;4921167;28;96591;-83
2023/10/27 04:38:04;;;;;;;16.40;8.45;;;;;;;10.41;nan;98061.25;4921492;28;96846;-83
2023/10/27 04:40:30;;;;;;;18.75;8.18;;;;;;;10.41;nan;98063.00;4920110;28;101631;-83
2023/10/27 04:42:58;;;;;;;15.43;8.02;;;;;;;10.50;nan;98074.66;4920821;28;101387;-83
2023/10/27 04:45:25;;;;;;;19.13;8.27;;;;;;;10.47;nan;98077.50;4920698;28;96518;-84
2023/10/27 04:47:50;;;;;;;23.25;9.82;;;;;;;10.41;nan;98070.88;4921090;28;96878;-83
2023/10/27 04:50:17;;;;;;;16.55;8.93;;;;;;;10.47;nan;98075.72;4936988;28;101349;-82
2023/10/27 04:52:44;;;;;;;13.45;7.50;;;;;;;10.41;nan;98069.13;4937240;28;101561;-83
2023/10/27 04:55:10;;;;;;;20.52;8.77;;;;;;;10.42;nan;98070.78;4937328;28;96594;-82
2023/10/27 04:57:36;;;;;;;23.23;7.72;;;;;;;10.46;nan;98070.59;4921530;28;96866;-83
2023/10/27 05:00:04;;;;;;;15.02;8.27;;;;;;;10.48;nan;98066.06;4938284;28;97921;-82
2023/10/27 05:02:30;;;;;;;19.45;8.10;;;;;;;10.51;nan;98060.63;4920574;28;99238;-79
2023/10/27 05:04:55;;;;;;;20.30;9.07;;;;;;;10.50;nan;98049.28;4920188;28;96568;-77
2023/10/27 05:07:22;;;;;;;13.68;7.57;;;;;;;10.50;nan;98044.03;4920906;28;97097;-79
2023/10/27 05:09:47;;;;;;;16.15;7.93;;;;;;;10.55;nan;98043.72;4920896;28;98192;-84
2023/10/27 05:12:13;;;;;;;24.25;10.15;;;;;;;10.55;nan;98049.78;4920396;28;100974;-84
2023/10/27 05:14:39;;;;;;;20.20;8.48;;;;;;;10.48;nan;98040.69;4905742;28;96650;-89
2023/10/27 05:17:05;;;;;;;17.13;8.48;;;;;;;10.51;nan;98053.56;4922674;28;96585;-88
2023/10/27 05:19:30;;;;;;;22.25;9.20;;;;;;;10.54;nan;98049.91;4921928;28;98245;-89
2023/10/27 05:21:56;;;;;;;20.00;9.57;;;;;;;10.51;nan;98042.25;4938182;28;98270;-89
2023/10/27 05:24:22;;;;;;;17.38;8.88;;;;;;;10.51;nan;98058.00;4921986;28;96680;-89
2023/10/27 05:26:47;;;;;;;19.92;9.13;;;;;;;10.53;nan;98050.84;4922210;28;96678;-89
2023/10/27 05:29:13;;;;;;;28.83;10.75;;;;;;;10.40;nan;98025.47;4921165;28;101426;-89
2023/10/27 05:31:40;;;;;;;20.42;10.40;;;;;;;10.53;nan;98046.44;4921411;28;101210;-90
2023/10/27 05:34:05;;;;;;;22.88;9.57;;;;;;;10.44;nan;98026.09;4921693;28;96626;-89
2023/10/27 05:36:31;;;;;;;24.65;9.55;;;;;;;10.45;nan;98025.16;4921762;28;96946;-90
2023/10/27 05:38:56;;;;;;;22.75;9.23;;;;;;;10.58;nan;98052.19;4920400;28;100302;-89
2023/10/27 05:41:22;;;;;;;17.60;8.63;;;;;;;10.48;nan;98038.06;4937263;28;101536;-89
2023/10/27 05:43:50;;;;;;;25.60;8.93;;;;;;;10.59;nan;98053.88;4922292;28;96756;-85
2023/10/27 05:46:16;;;;;;;14.65;9.18;;;;;;;10.61;nan;98051.97;4924837;28;96479;-83
2023/10/27 05:48:41;;;;;;;23.17;8.40;;;;;;;10.62;nan;98058.91;4923184;28;101797;-83
2023/10/27 05:51:07;;;;;;;24.63;9.70;;;;;;;10.65;nan;98055.25;4922994;28;100517;-83
2023/10/27 05:53:32;;;;;;;29.48;11.15;;;;;;;10.64;nan;98050.94;4939201;28;96736;-84
2023/10/27 05:55:58;;;;;;;28.52;11.55;;;;;;;10.70;nan;98060.16;4922994;28;96968;-84
2023/10/27 05:58:23;;;;;;;33.33;12.07;;;;;;;10.67;nan;98042.00;4906807;28;102158;-84
2023/10/27 06:00:49;;;;;;;33.83;13.52;;;;;;;10.75;nan;98055.44;4939559;28;97947;-84
2023/10/27 06:03:14;;;;;;;36.83;13.35;;;;;;;10.62;nan;98032.69;4939713;28;96583;-84
2023/10/27 06:05:40;;;;;;;51.05;15.15;;;;;;;10.79;nan;98043.75;4923633;28;96577;-84
2023/10/27 06:08:05;;;;;;;40.47;15.07;;;;;;;10.81;nan;98037.44;4922653;28;101131;-84
2023/10/27 06:10:31;;;;;;;47.13;15.20;;;;;;;10.83;nan;98034.72;4923300;28;99779;-83
2023/10/27 06:12:57;;;;;;;36.17;14.25;;;;;;;10.83;nan;98035.56;4923038;28;96615;-85
2023/10/27 06:15:22;;;;;;;40.35;15.35;;;;;;;10.62;nan;98005.63;4922984;28;96871;-85
2023/10/27 06:17:49;;;;;;;38.80;13.93;;;;;;;10.82;nan;98036.53;4940455;28;97425;-87
2023/10/27 06:20:15;;;;;;;36.80;14.05;;;;;;;10.83;nan;98035.56;4940369;28;101849;-87
2023/10/27 06:22:42;;;;;;;26.88;11.98;;;;;;;10.95;nan;98043.53;4928032;28;96562;-87
2023/10/27 06:25:09;;;;;;;27.02;10.80;;;;;;;10.97;nan;98042.47;4940612;28;96780;-90
2023/10/27 06:27:38;;;;;;;29.15;11.45;;;;;;;10.98;nan;98044.13;4927040;28;101206;-94
2023/10/27 06:30:05;;;;;;;31.88;12.50;;;;;;;11.06;nan;98041.78;4925635;28;98440;-93
2023/10/27 06:32:31;;;;;;;28.10;11.70;;;;;;;11.12;nan;98051.03;4923708;28;96544;-88
2023/10/27 06:34:56;;;;;;;28.95;11.80;;;;;;;11.13;nan;98031.69;4924121;28;96879;-86
2023/10/27 06:37:23;;;;;;;28.10;12.63;;;;;;;11.20;nan;98039.94;4922990;28;101006;-87
2023/10/27 06:39:50;;;;;;;39.58;16.25;;;;;;;11.24;nan;98041.41;4923319;28;98501;-86
2023/10/27 06:42:16;;;;;;;50.70;17.77;;;;;;;11.24;nan;98046.66;4922940;28;96638;-86
2023/10/27 06:44:42;;;;;;;47.70;17.08;;;;;;;11.24;nan;98042.25;4922583;28;96874;-86
2023/10/27 06:47:07;;;;;;;37.53;15.30;;;;;;;11.22;nan;98033.63;4923353;28;98018;-86
2023/10/27 06:49:33;;;;;;;35.80;16.23;;;;;;;11.27;nan;98043.81;4922908;28;101785;-86
2023/10/27 06:51:58;;;;;;;52.15;17.63;;;;;;;11.17;nan;98020.03;4907131;28;96776;-86
2023/10/27 06:54:24;;;;;;;42.13;17.70;;;;;;;11.25;nan;98033.41;4939779;28;96677;-86
2023/10/27 06:56:50;;;;;;;36.85;16.13;;;;;;;11.25;nan;98035.19;4906708;28;101299;-86
2023/10/27 06:59:16;;;;;;;33.35;14.05;;;;;;;11.33;nan;98054.69;4907113;28;100725;-85
2023/10/27 07:01:44;;;;;;;27.55;12.90;;;;;;;11.24;nan;98028.28;4939202;28;96635;-86
2023/10/27 07:04:09;;;;;;;24.85;12.55;;;;;;;11.33;nan;98036.31;4939415;28;97247;-86
2023/10/27 07:06:35;;;;;;;28.98;13.23;;;;;;;11.37;nan;98036.09;4906174;28;101411;-86
2023/10/27 07:09:01;;;;;;;24.77;11.88;;;;;;;11.49;nan;98051.81;4922689;28;101760;-85
2023/10/27 07:11:26;;;;;;;23.90;11.85;;;;;;;11.49;nan;98051.81;4922449;28;96569;-86
2023/10/27 07:13:52;;;;;;;28.58;10.93;;;;;;;11.41;nan;98048.91;4922808;28;96845;-86
2023/10/27 07:16:17;;;;;;;19.15;9.63;;;;;;;11.49;nan;98049.19;4922249;28;100596;-85
2023/10/27 07:18:43;;;;;;;19.38;10.63;;;;;;;11.45;nan;98055.59;4938487;28;101232;-87
2023/10/27 07:21:11;;;;;;;20.83;10.98;;;;;;;11.00;nan;98039.63;4955004;28;96599;-87
2023/10/27 07:23:37;;;;;;;18.80;10.85;;;;;;;11.23;nan;98058.97;4923670;28;96909;-87
2023/10/27 07:26:11;;;;;;;25.50;11.95;;;;;;;11.27;nan;98052.53;4922781;28;97343;-87
2023/10/27 07:28:37;;;;;;;25.40;11.80;;;;;;;11.41;nan;98061.19;4922492;28;101399;-87
2023/10/27 07:31:04;;;;;;;26.88;14.30;;;;;;;11.38;nan;98049.13;4921733;28;96659;-83
2023/10/27 07:33:29;;;;;;;29.80;15.90;;;;;;;11.44;nan;98046.03;4937509;28;96846;-83
2023/10/27 07:35:55;;;;;;;129.23;18.98;;;;;;;11.37;nan;98036.94;4937390;28;101878;-80
2023/10/27 07:38:20;;;;;;;34.83;14.68;;;;;;;11.32;nan;98024.16;4905196;28;101260;-79
2023/10/27 07:40:47;;;;;;;32.35;15.50;;;;;;;11.36;nan;98045.75;4937881;28;96705;-78
2023/10/27 07:43:13;;;;;;;29.35;12.52;;;;;;;11.44;nan;98043.41;4921832;28;96979;-80
2023/10/27 07:45:38;;;;;;;22.55;12.38;;;;;;;11.51;nan;98042.00;4914517;28;98092;-80
2023/10/27 07:48:04;;;;;;;27.20;12.43;;;;;;;11.58;nan;98039.78;4915081;28;101402;-78
2023/10/27 07:50:30;;;;;;;22.10;13.55;;;;;;;11.54;nan;98031.25;4898951;28;96623;-79
2023/10/27 07:52:55;;;;;;;22.75;12.82;;;;;;;11.67;nan;98036.47;4898957;28;96886;-78
2023/10/27 07:55:21;;;;;;;23.42;12.13;;;;;;;11.62;nan;98024.63;4913178;28;102062;-79
2023/10/27 07:57:46;;;;;;;21.52;12.40;;;;;;;11.61;nan;98013.28;4914313;28;101343;-79
2023/10/27 08:00:12;;;;;;;28.63;13.75;;;;;;;11.69;nan;98020.56;4915086;28;96687;-79
2023/10/27 08:02:38;;;;;;;21.77;12.13;;;;;;;11.61;nan;98015.91;4914147;28;96922;-79
2023/10/27 08:05:04;;;;;;;31.98;14.48;;;;;;;11.69;nan;98010.91;4898321;28;101240;-80
2023/10/27 08:07:30;;;;;;;21.08;11.85;;;;;;;11.68;nan;98011.84;4914359;28;100900;-80
2023/10/27 08:09:56;;;;;;;22.45;13.55;;;;;;;11.81;nan;98019.66;4914596;28;96628;-80
2023/10/27 08:12:21;;;;;;;24.60;13.13;;;;;;;11.88;nan;98025.31;4930971;28;96943;-80
2023/10/27 08:14:47;;;;;;;29.83;14.13;;;;;;;11.81;nan;97988.13;4914410;28;97633;-80
2023/10/27 08:17:12;;;;;;;18.85;11.45;;;;;;;11.73;nan;97983.44;4914393;28;97940;-81
2023/10/27 08:19:39;;;;;;;19.48;11.27;;;;;;;11.92;nan;97998.66;4898296;28;96649;-80
2023/10/27 08:22:05;;;;;;;17.63;11.23;;;;;;;11.98;nan;98013.13;4914697;28;96689;-80
2023/10/27 08:24:31;;;;;;;22.23;10.82;;;;;;;11.97;nan;97998.31;4898123;28;100805;-79
2023/10/27 08:26:56;;;;;;;20.88;10.20;;;;;;;12.03;nan;98012.81;4898001;28;101295;-79
2023/10/27 08:29:22;;;;;;;17.90;10.68;;;;;;;12.04;nan;98001.31;4898249;28;96590;-80
2023/10/27 08:31:47;;;;;;;19.95;10.15;;;;;;;12.18;nan;98016.88;4915827;28;96575;-79
2023/10/27 08:34:13;;;;;;;17.90;10.30;;;;;;;12.27;nan;98023.22;4914466;28;97403;-79
2023/10/27 08:36:39;;;;;;;16.65;8.35;;;;;;;12.22;nan;98010.44;4914177;28;100981;-79
2023/10/27 08:39:06;;;;;;;16.40;9.45;;;;;;;12.22;nan;98013.91;4930567;28;96641;-79
2023/10/27 08:41:33;;;;;;;16.98;8.57;;;;;;;12.10;nan;98022.75;4914342;28;96879;-80
2023/10/27 08:43:59;;;;;;;17.90;8.18;;;;;;;12.23;nan;98030.53;4918312;28;97349;-80
2023/10/27 08:46:26;;;;;;;14.23;8.60;;;;;;;12.27;nan;98021.41;4936390;28;101634;-80
2023/10/27 08:48:51;;;;;;;40.92;21.65;;;;;;;12.22;nan;98011.28;4936255;28;96577;-81
2023/10/27 08:51:17;;;;;;;20.40;11.32;;;;;;;12.23;nan;98006.84;4920540;28;96653;-80
2023/10/27 08:53:44;;;;;;;18.10;8.48;;;;;;;12.16;nan;98003.03;4935801;28;101526;-82
2023/10/27 08:56:13;;;;;;;17.08;9.02;;;;;;;12.26;nan;98014.50;4936302;28;101356;-81
2023/10/27 08:58:40;;;;;;;18.15;8.77;;;;;;;12.29;nan;98014.25;4936531;28;96679;-81
2023/10/27 09:01:05;;;;;;;15.95;8.07;;;;;;;12.26;nan;98014.50;4936575;28;96784;-81
2023/10/27 09:03:31;;;;;;;19.55;9.35;;;;;;;12.19;nan;98014.13;4936015;28;100770;-81
2023/10/27 09:05:58;;;;;;;20.75;11.50;;;;;;;12.24;nan;98005.88;4953863;28;98059;-81
2023/10/27 09:08:24;;;;;;;19.35;8.90;;;;;;;12.37;nan;98011.88;4920015;28;96639;-78
2023/10/27 09:10:50;;;;;;;18.13;8.00;;;;;;;12.39;nan;98006.47;4936739;28;96871;-80
2023/10/27 09:13:22;;;;;;;14.88;8.00;;;;;;;12.29;nan;97995.84;4952631;28;97575;-81
2023/10/27 09:15:50;;;;;;;17.42;8.68;;;;;;;12.33;nan;98006.97;4938665;28;97630;-79
2023/10/27 09:18:15;;;;;;;16.80;7.97;;;;;;;12.25;nan;97999.69;4940259;28;96700;-79
2023/10/27 09:20:52;;;;;;;12.85;7.85;;;;;;;12.32;nan;98005.28;4939758;28;96859;-79
2023/10/27 09:23:20;;;;;;;17.45;7.60;;;;;;;12.23;nan;97991.06;4939699;28;98205;-79
2023/10/27 09:25:46;;;;;;;19.02;8.13;;;;;;;12.36;nan;98002.31;4939567;28;100971;-79
2023/10/27 09:28:12;;;;;;;29.85;8.98;;;;;;;12.42;nan;98006.22;4939567;28;96581;-79
2023/10/27 09:30:40;;;;;;;13.20;7.63;;;;;;;12.36;nan;97990.94;4939365;28;96799;-82
2023/10/27 09:33:08;;;;;;;16.83;7.30;;;;;;;12.48;nan;98012.81;4922559;28;101734;-79
2023/10/27 09:35:34;;;;;;;11.45;7.53;;;;;;;12.43;nan;98000.88;4938951;28;100884;-79
2023/10/27 09:37:59;;;;;;;8.48;6.55;;;;;;;12.39;nan;98006.47;4923238;28;96597;-80
2023/10/27 09:40:25;;;;;;;14.43;6.57;;;;;;;12.43;nan;98005.31;4939453;28;96714;-83
2023/10/27 09:42:53;;;;;;;13.48;6.72;;;;;;;12.29;nan;97982.69;4940076;28;98048;-90
2023/10/27 09:45:22;;;;;;;14.63;7.00;;;;;;;12.22;nan;97956.03;4923898;28;101578;-95
2023/10/27 09:47:49;;;;;;;10.75;6.70;;;;;;;12.38;nan;97984.59;4941840;28;96615;-93
2023/10/27 09:50:18;;;;;;;14.75;6.93;;;;;;;12.45;nan;97996.34;4941905;28;96718;-90
2023/10/27 09:52:44;;;;;;;11.82;6.63;;;;;;;12.50;nan;97998.59;4940860;28;102037;-93
2023/10/27 09:55:12;;;;;;;10.80;7.30;;;;;;;12.39;nan;97969.66;4941159;28;97310;-92
2023/10/27 09:57:40;;;;;;;13.98;6.57;;;;;;;12.50;nan;97988.06;4924311;28;96782;-90
2023/10/27 10:00:09;;;;;;;10.57;6.60;;;;;;;12.58;nan;97980.41;4940891;28;96672;-90
2023/10/27 10:02:37;;;;;;;12.00;6.88;;;;;;;12.58;nan;97990.94;4954143;28;97075;-90
2023/10/27 10:05:03;;;;;;;11.07;7.55;;;;;;;12.70;nan;97986.47;4940069;28;101480;-91
2023/10/27 10:07:33;;;;;;;17.30;8.13;;;;;;;12.66;nan;97971.91;4957139;28;96724;-91
2023/10/27 10:10:34;;;;;;;14.43;7.20;;;;;;;12.77;nan;97985.06;4941497;28;96849;-92
2023/10/27 10:12:59;;;;;;;12.68;7.15;;;;;;;12.74;nan;97976.53;4940883;28;101970;-91
2023/10/27 10:15:27;;;;;;;10.88;6.72;;;;;;;12.81;nan;97988.28;4958649;28;97503;-80
2023/10/27 10:17:53;;;;;;;12.60;7.30;;;;;;;12.72;nan;97965.31;4940438;28;96654;-85
2023/10/27 10:20:41;;;;;;;12.90;7.20;;;;;;;12.79;nan;97964.69;4940707;28;96776;-91
2023/10/27 10:23:13;;;;;;;22.33;7.43;;;;;;;12.72;nan;97970.59;4916658;28;101594;-86
2023/10/27 10:26:16;;;;;;;10.25;6.70;;;;;;;12.69;nan;97975.13;4938717;28;100897;-80
2023/10/27 10:28:45;;;;;;;14.60;6.70;;;;;;;12.66;nan;97971.91;4939470;28;96678;-90
2023/10/27 10:31:11;;;;;;;10.98;7.60;;;;;;;12.67;nan;97971.78;4956725;28;96614;-88
2023/10/27 10:33:48;;;;;;;12.80;7.05;;;;;;;12.59;nan;97949.66;4956987;28;101888;-91
2023/10/27 10:36:14;;;;;;;10.50;6.40;;;;;;;12.78;nan;97963.03;4908633;28;100396;-90
2023/10/27 10:38:43;;;;;;;11.60;7.28;;;;;;;12.82;nan;97950.44;4956762;28;96561;-93
2023/10/27 10:41:09;;;;;;;12.68;7.65;;;;;;;12.84;nan;97949.38;4940930;28;96590;-86
2023/10/27 10:43:38;;;;;;;10.55;7.15;;;;;;;12.66;nan;97911.38;4956698;28;98569;-93
2023/10/27 10:46:10;;;;;;;19.60;7.57;;;;;;;12.95;nan;97959.03;4939853;28;100882;-90
2023/10/27 10:48:41;;;;;;;15.43;8.13;;;;;;;12.72;nan;97929.31;4956359;28;96598;-88
2023/10/27 10:51:29;;;;;;;18.20;8.48;;;;;;;12.80;nan;97952.34;4924530;28;96557;-90
2023/10/27 10:53:55;;;;;;;20.75;8.70;;;;;;;12.82;nan;97942.53;4942993;28;97438;-92
2023/10/27 10:56:22;;;;;;;16.58;8.10;;;;;;;12.87;nan;97937.75;4939942;28;100324;-90
2023/10/27 10:58:47;;;;;;;13.27;8.32;;;;;;;12.88;nan;97928.88;4957039;28;96644;-89
2023/10/27 11:01:20;;;;;;;21.88;9.52;;;;;;;12.85;nan;97926.50;4925163;28;96718;-90
2023/10/27 11:03:53;;;;;;;13.07;9.00;;;;;;;12.80;nan;97931.28;4940960;28;101533;-95
2023/10/27 11:06:27;;;;;;;17.77;9.40;;;;;;;12.80;nan;97932.16;4923854;28;100590;-90
2023/10/27 11:08:53;;;;;;;14.95;8.60;;;;;;;12.88;nan;97939.41;4907342;28;96736;-92
2023/10/27 11:11:19;;;;;;;16.25;8.32;;;;;;;12.97;nan;97935.19;4956499;28;96842;-88
2023/10/27 11:13:53;;;;;;;16.02;8.85;;;;;;;12.97;nan;97925.50;4922920;28;101421;-96
2023/10/27 11:16:28;;;;;;;14.57;8.15;;;;;;;12.94;nan;97936.28;4924378;28;100809;-96
2023/10/27 11:19:04;;;;;;;15.50;8.73;;;;;;;12.89;nan;97931.41;4924150;28;96553;-91
2023/10/27 11:21:41;;;;;;;14.23;7.38;;;;;;;12.68;nan;97910.28;4941942;28;96789;-95
2023/10/27 11:24:12;;;;;;;14.95;9.45;;;;;;;12.95;nan;97939.78;4925756;28;100106;-94
2023/10/27 11:26:42;;;;;;;12.98;7.63;;;;;;;13.03;nan;97940.81;4924351;28;98280;-96
2023/10/27 11:29:08;;;;;;;17.60;9.38;;;;;;;13.04;nan;97939.84;4924290;28;96580;-89
2023/10/27 11:31:45;;;;;;;13.60;7.90;;;;;;;13.05;nan;97945.94;4939758;28;96984;-92
2023/10/27 11:34:12;;;;;;;13.30;8.07;;;;;;;13.08;nan;97936.00;4924601;28;98474;-91